createdAt,value
2023-04-06T00:02:07.397Z,98156.47
2023-04-06T00:04:37.784Z,98151.69
2023-04-06T00:07:08.552Z,98152.38
2023-04-06T00:09:41.545Z,98144.41
2023-04-06T00:12:11.925Z,98136.69
2023-04-06T00:14:42.263Z,98134.00
2023-04-06T00:17:12.624Z,98141.69
2023-04-06T00:19:42.977Z,98132.56
2023-04-06T00:22:13.423Z,98133.44
2023-04-06T00:24:46.432Z,98136.50
2023-04-06T00:27:16.831Z,98131.78
2023-04-06T00:29:48.153Z,98136.09
2023-04-06T00:32:18.605Z,98131.22
2023-04-06T00:34:48.981Z,98138.53
2023-04-06T00:37:20.335Z,98134.47
2023-04-06T00:39:53.253Z,98134.47
2023-04-06T00:42:27.146Z,98133.03
2023-04-06T00:44:57.724Z,98134.59
2023-04-06T00:47:29.064Z,98131.34
2023-04-06T00:49:59.599Z,98132.13
2023-04-06T00:52:29.899Z,98129.38
2023-04-06T00:55:02.824Z,98124.69
2023-04-06T00:57:33.720Z,98124.44
2023-04-06T01:00:04.436Z,98120.59
2023-04-06T01:02:34.821Z,98131.22
2023-04-06T01:05:05.386Z,98124.94
2023-04-06T01:07:49.407Z,98126.16
2023-04-06T01:10:35.037Z,98128.13
2023-04-06T01:13:16.466Z,98120.22
2023-04-06T01:15:55.086Z,98129.50
2023-04-06T01:18:33.085Z,98129.41
2023-04-06T01:21:16.952Z,98127.53
2023-04-06T01:24:13.662Z,98128.81
2023-04-06T01:27:19.579Z,98121.44
2023-04-06T01:30:11.521Z,98119.63
2023-04-06T01:33:03.735Z,98118.69
2023-04-06T01:36:02.253Z,98124.44
2023-04-06T01:38:33.080Z,98125.88
2023-04-06T01:41:06.428Z,98125.22
2023-04-06T01:43:48.777Z,98114.38
2023-04-06T01:46:19.636Z,98120.41
2023-04-06T01:48:50.118Z,98110.97
2023-04-06T01:51:32.763Z,98113.72
2023-04-06T01:54:05.527Z,98109.84
2023-04-06T01:56:58.730Z,98111.47
2023-04-06T01:59:38.775Z,98107.28
2023-04-06T02:02:16.695Z,98104.75
2023-04-06T02:04:56.237Z,98105.97
2023-04-06T02:07:27.101Z,98102.00
2023-04-06T02:09:59.243Z,98107.50
2023-04-06T02:12:40.554Z,98100.81
2023-04-06T02:15:14.867Z,98102.38
2023-04-06T02:17:46.103Z,98101.94
2023-04-06T02:20:16.551Z,98101.59
2023-04-06T02:22:46.948Z,98101.44
2023-04-06T02:25:17.312Z,98106.41
2023-04-06T02:27:50.246Z,98100.81
2023-04-06T02:30:20.560Z,98096.13
2023-04-06T02:32:50.997Z,98097.34
2023-04-06T02:35:21.508Z,98089.53
2023-04-06T02:37:57.200Z,98086.78
2023-04-06T02:40:27.987Z,98086.06
2023-04-06T02:43:01.905Z,98094.75
2023-04-06T02:45:35.522Z,98091.06
2023-04-06T02:48:06.823Z,98086.41
2023-04-06T02:50:37.591Z,98088.81
2023-04-06T02:53:10.668Z,98096.78
2023-04-06T02:55:42.836Z,98106.50
2023-04-06T02:58:16.011Z,98097.22
2023-04-06T03:00:50.651Z,98090.88
2023-04-06T03:03:21.093Z,98088.66
2023-04-06T03:05:51.756Z,98084.97
2023-04-06T03:08:29.529Z,98092.31
2023-04-06T03:10:59.916Z,98088.91
2023-04-06T03:13:42.287Z,98084.72
2023-04-06T03:16:14.107Z,98094.75
2023-04-06T03:18:45.966Z,98085.75
2023-04-06T03:21:20.509Z,98089.31
2023-04-06T03:23:53.382Z,98097.75
2023-04-06T03:26:23.718Z,98093.63
2023-04-06T03:28:58.480Z,98092.78
2023-04-06T03:31:33.745Z,98093.63
2023-04-06T03:34:10.488Z,98098.34
2023-04-06T03:36:40.815Z,98093.63
2023-04-06T03:39:11.120Z,98092.53
2023-04-06T03:41:45.605Z,98092.84
2023-04-06T03:44:38.008Z,98102.38
2023-04-06T03:47:09.870Z,98109.41
2023-04-06T03:49:40.678Z,98106.84
2023-04-06T03:52:13.880Z,98120.13
2023-04-06T03:54:44.207Z,98114.75
2023-04-06T03:57:15.004Z,98117.66
2023-04-06T03:59:48.075Z,98117.25
2023-04-06T04:02:18.752Z,98114.13
2023-04-06T04:04:49.408Z,98121.44
2023-04-06T04:07:19.849Z,98113.63
2023-04-06T04:09:50.180Z,98121.16
2023-04-06T04:12:20.523Z,98117.81
2023-04-06T04:14:53.508Z,98125.63
2023-04-06T04:17:23.923Z,98119.88
2023-04-06T04:19:54.227Z,98117.91
2023-04-06T04:22:24.618Z,98111.75
2023-04-06T04:24:55.101Z,98124.94
2023-04-06T04:27:25.786Z,98111.28
2023-04-06T04:29:59.358Z,98121.56
2023-04-06T04:32:30.730Z,98116.44
2023-04-06T04:35:02.980Z,98113.75
2023-04-06T04:37:40.639Z,98113.84
2023-04-06T04:40:13.594Z,98117.28
2023-04-06T04:43:07.545Z,98114.94
2023-04-06T04:45:41.544Z,98120.81
2023-04-06T04:48:34.922Z,98122.78
2023-04-06T04:51:08.701Z,98119.09
2023-04-06T04:53:58.458Z,98117.91
2023-04-06T04:56:33.034Z,98127.75
2023-04-06T04:59:35.534Z,98131.78
2023-04-06T05:02:17.307Z,98131.03
2023-04-06T05:05:06.737Z,98129.31
2023-04-06T05:07:37.215Z,98134.38
2023-04-06T05:10:10.521Z,98135.78
2023-04-06T05:12:50.265Z,98132.44
2023-04-06T05:15:20.787Z,98136.69
2023-04-06T05:17:56.703Z,98140.63
2023-04-06T05:20:34.128Z,98140.09
2023-04-06T05:23:04.576Z,98137.41
2023-04-06T05:25:35.120Z,98134.25
2023-04-06T05:28:17.194Z,98151.25
2023-04-06T05:30:49.123Z,98138.63
2023-04-06T05:33:23.252Z,98139.56
2023-04-06T05:36:19.556Z,98144.28
2023-04-06T05:38:51.998Z,98136.66
2023-04-06T05:41:46.384Z,98138.88
2023-04-06T05:44:18.205Z,98135.03
2023-04-06T05:46:53.145Z,98140.44
2023-04-06T05:49:26.122Z,98141.88
2023-04-06T05:51:56.889Z,98140.16
2023-04-06T05:54:27.524Z,98143.16
2023-04-06T05:57:03.250Z,98147.88
2023-04-06T05:59:34.550Z,98147.00
2023-04-06T06:02:05.225Z,98142.84
2023-04-06T06:04:41.041Z,98144.75
2023-04-06T06:07:11.508Z,98151.47
2023-04-06T06:09:47.707Z,98148.19
2023-04-06T06:12:26.388Z,98150.50
2023-04-06T06:14:56.883Z,98146.56
2023-04-06T06:17:28.954Z,98142.84
2023-04-06T06:20:03.071Z,98149.91
2023-04-06T06:22:33.595Z,98147.75
2023-04-06T06:25:04.130Z,98150.31
2023-04-06T06:27:34.638Z,98147.78
2023-04-06T06:30:05.499Z,98151.44
2023-04-06T06:32:36.821Z,98142.19
2023-04-06T06:35:10.646Z,98154.13
2023-04-06T06:37:41.939Z,98149.50
2023-04-06T06:40:19.060Z,98156.47
2023-04-06T06:42:51.483Z,98155.81
2023-04-06T06:45:30.610Z,98148.88
2023-04-06T06:48:01.146Z,98151.28
2023-04-06T06:50:34.241Z,98159.75
2023-04-06T06:53:04.558Z,98152.81
2023-04-06T06:55:34.840Z,98158.13
2023-04-06T06:58:05.206Z,98166.38
2023-04-06T07:00:36.361Z,98169.34
2023-04-06T07:03:07.358Z,98159.31
2023-04-06T07:05:41.497Z,98166.91
2023-04-06T07:08:12.018Z,98157.75
2023-04-06T07:10:42.426Z,98158.38
2023-04-06T07:13:13.554Z,98157.56
2023-04-06T07:15:44.019Z,98154.47
2023-04-06T07:18:14.507Z,98152.41
2023-04-06T07:20:47.811Z,98160.34
2023-04-06T07:23:19.267Z,98158.88
2023-04-06T07:25:52.134Z,98167.38
2023-04-06T07:28:22.427Z,98165.41
2023-04-06T07:30:52.904Z,98163.47
2023-04-06T07:33:23.467Z,98164.50
2023-04-06T07:35:57.276Z,98166.50
2023-04-06T07:38:28.046Z,98160.34
2023-04-06T07:40:58.823Z,98157.72
2023-04-06T07:43:29.311Z,98152.91
2023-04-06T07:46:01.158Z,98158.63
2023-04-06T07:48:31.617Z,98151.75
2023-04-06T07:51:10.040Z,98149.56
2023-04-06T07:53:43.499Z,98147.47
2023-04-06T07:56:13.853Z,98150.19
2023-04-06T07:58:44.184Z,98152.50
2023-04-06T08:01:14.664Z,98149.28
2023-04-06T08:03:45.176Z,98143.44
2023-04-06T08:06:18.301Z,98150.53
2023-04-06T08:08:48.650Z,98145.69
2023-04-06T08:11:18.914Z,98155.09
2023-04-06T08:13:49.249Z,98141.13
2023-04-06T08:16:19.627Z,98151.56
2023-04-06T08:18:50.037Z,98146.97
2023-04-06T08:21:22.958Z,98151.75
2023-04-06T08:23:53.315Z,98153.31
2023-04-06T08:26:23.669Z,98156.13
2023-04-06T08:28:54.190Z,98155.63
2023-04-06T08:31:24.620Z,98148.47
2023-04-06T08:33:55.015Z,98152.44
2023-04-06T08:36:27.931Z,98149.38
2023-04-06T08:41:28.195Z,98145.28
2023-04-06T08:44:06.189Z,98143.56
2023-04-06T08:46:36.629Z,98134.19
2023-04-06T08:49:08.019Z,98141.03
2023-04-06T08:51:41.594Z,98141.69
2023-04-06T08:54:12.000Z,98130.22
2023-04-06T08:56:43.027Z,98136.63
2023-04-06T08:59:13.498Z,98127.00
2023-04-06T09:01:45.245Z,98132.09
2023-04-06T09:04:16.460Z,98128.91
2023-04-06T09:06:51.139Z,98139.28
2023-04-06T09:09:24.132Z,98133.06
2023-04-06T09:11:56.238Z,98126.97
2023-04-06T09:14:39.154Z,98124.91
2023-04-06T09:17:09.767Z,98120.91
2023-04-06T09:19:49.798Z,98123.38
2023-04-06T09:22:23.054Z,98128.16
2023-04-06T09:24:57.665Z,98109.03
2023-04-06T09:27:37.837Z,98112.25
2023-04-06T09:30:11.158Z,98111.41
2023-04-06T09:32:53.130Z,98111.09
2023-04-06T09:35:24.244Z,98105.06
2023-04-06T09:37:57.769Z,98103.47
2023-04-06T09:40:30.370Z,98106.16
2023-04-06T09:43:01.024Z,98105.84
2023-04-06T09:45:34.081Z,98107.56
2023-04-06T09:48:04.747Z,98105.59
2023-04-06T09:50:36.165Z,98110.72
2023-04-06T09:53:09.572Z,98105.59
2023-04-06T09:55:46.091Z,98098.66
2023-04-06T09:58:20.402Z,98097.31
2023-04-06T10:00:54.799Z,98107.22
2023-04-06T10:03:31.485Z,98103.88
2023-04-06T10:06:05.914Z,98109.25
2023-04-06T10:08:41.676Z,98108.56
2023-04-06T10:11:12.632Z,98106.25
2023-04-06T10:13:43.254Z,98099.75
2023-04-06T10:16:14.045Z,98089.97
2023-04-06T10:18:46.796Z,98091.81
2023-04-06T10:21:21.606Z,98093.91
2023-04-06T10:23:57.547Z,98090.38
2023-04-06T10:26:27.959Z,98089.28
2023-04-06T10:28:59.102Z,98080.66
2023-04-06T10:31:30.452Z,98084.75
2023-04-06T10:34:01.471Z,98083.34
2023-04-06T10:36:32.887Z,98077.84
2023-04-06T10:39:08.093Z,98078.00
2023-04-06T10:41:39.420Z,98077.28
2023-04-06T10:44:09.856Z,98077.84
2023-04-06T10:46:40.410Z,98072.75
2023-04-06T10:49:16.846Z,98063.66
2023-04-06T10:51:47.178Z,98072.34
2023-04-06T10:54:20.526Z,98061.94
2023-04-06T10:56:50.845Z,98065.53
2023-04-06T10:59:23.877Z,98060.16
2023-04-06T11:01:54.404Z,98062.75
2023-04-06T11:04:25.447Z,98054.13
2023-04-06T11:06:56.337Z,98054.94
2023-04-06T11:09:33.636Z,98048.41
2023-04-06T11:12:04.313Z,98050.22
2023-04-06T11:14:34.737Z,98053.78
2023-04-06T11:17:05.106Z,98058.47
2023-04-06T11:19:36.131Z,98049.75
2023-04-06T11:22:13.622Z,98044.72
2023-04-06T11:24:46.531Z,98046.81
2023-04-06T11:27:17.673Z,98036.59
2023-04-06T11:29:48.204Z,98030.00
2023-04-06T11:32:25.737Z,98035.84
2023-04-06T11:34:56.239Z,98036.06
2023-04-06T11:37:30.720Z,98026.34
2023-04-06T11:40:04.187Z,98026.81
2023-04-06T11:42:34.475Z,98018.81
2023-04-06T11:45:04.844Z,98014.75
2023-04-06T11:47:37.405Z,98015.81
2023-04-06T11:50:12.591Z,98017.22
2023-04-06T11:52:43.624Z,98014.63
2023-04-06T11:55:21.498Z,98025.00
2023-04-06T11:57:52.796Z,98015.75
2023-04-06T12:00:25.081Z,98024.25
2023-04-06T12:02:55.502Z,98012.34
2023-04-06T12:05:26.280Z,98005.88
2023-04-06T12:07:57.529Z,97997.97
2023-04-06T12:10:32.910Z,97993.81
2023-04-06T12:13:03.246Z,97992.94
2023-04-06T12:15:33.630Z,97988.16
2023-04-06T12:18:04.011Z,97978.97
2023-04-06T12:20:34.332Z,97976.47
2023-04-06T12:23:04.877Z,97982.88
2023-04-06T12:25:37.820Z,97978.38
2023-04-06T12:28:08.283Z,97978.78
2023-04-06T12:30:38.931Z,97977.78
2023-04-06T12:33:09.292Z,97977.66
2023-04-06T12:35:40.487Z,97983.78
2023-04-06T12:38:10.792Z,97980.28
2023-04-06T12:40:44.020Z,97975.03
2023-04-06T12:43:14.401Z,97971.22
2023-04-06T12:45:44.741Z,97969.72
2023-04-06T12:48:15.500Z,97967.59
2023-04-06T12:50:46.008Z,97957.66
2023-04-06T12:53:16.406Z,97965.47
2023-04-06T12:55:49.387Z,97955.78
2023-04-06T12:58:19.909Z,97955.47
2023-04-06T13:00:51.398Z,97948.09
2023-04-06T13:03:22.060Z,97952.97
2023-04-06T13:05:53.538Z,97943.25
2023-04-06T13:08:24.074Z,97944.84
2023-04-06T13:10:57.645Z,97945.91
2023-04-06T13:13:29.268Z,97947.16
2023-04-06T13:16:04.656Z,97946.31
2023-04-06T13:18:35.889Z,97943.75
2023-04-06T13:21:06.471Z,97936.25
2023-04-06T13:23:36.883Z,97935.91
2023-04-06T13:26:11.248Z,97930.34
2023-04-06T13:28:41.951Z,97929.38
2023-04-06T13:31:12.615Z,97920.66
2023-04-06T13:33:43.381Z,97921.41
2023-04-06T13:36:14.683Z,97928.66
2023-04-06T13:38:46.975Z,97920.47
2023-04-06T13:41:25.110Z,97918.38
2023-04-06T13:43:55.841Z,97913.41
2023-04-06T13:46:26.504Z,97916.03
2023-04-06T13:48:56.842Z,97914.25
2023-04-06T13:51:27.749Z,97914.84
2023-04-06T13:53:57.905Z,97908.81
2023-04-06T13:56:30.694Z,97908.50
2023-04-06T13:59:00.984Z,97905.44
2023-04-06T14:01:31.296Z,97910.34
2023-04-06T14:04:01.569Z,97913.44
2023-04-06T14:06:32.273Z,97918.56
2023-04-06T14:09:02.623Z,97914.31
2023-04-06T14:11:36.423Z,97904.09
2023-04-06T14:14:06.803Z,97905.84
2023-04-06T14:16:36.984Z,97901.38
2023-04-06T14:19:07.173Z,97902.13
2023-04-06T14:21:37.915Z,97903.13
2023-04-06T14:24:08.597Z,97900.47
2023-04-06T14:26:42.583Z,97899.72
2023-04-06T14:29:13.217Z,97896.53
2023-04-06T14:31:43.562Z,97905.78
2023-04-06T14:34:15.649Z,97902.44
2023-04-06T14:36:45.977Z,97900.66
2023-04-06T14:39:16.248Z,97894.41
2023-04-06T14:41:49.899Z,97885.13
2023-04-06T14:44:21.466Z,97884.16
2023-04-06T14:46:51.736Z,97883.72
2023-04-06T14:49:21.950Z,97880.13
2023-04-06T14:51:52.688Z,97884.59
2023-04-06T14:54:22.857Z,97890.84
2023-04-06T14:56:55.750Z,97895.91
2023-04-06T14:59:25.898Z,97881.81
2023-04-06T15:01:56.206Z,97879.03
2023-04-06T15:04:26.547Z,97886.00
2023-04-06T15:06:56.762Z,97884.00
2023-04-06T15:09:27.073Z,97881.41
2023-04-06T15:11:59.778Z,97878.63
2023-04-06T15:14:29.892Z,97872.56
2023-04-06T15:17:00.013Z,97873.03
2023-04-06T15:19:30.529Z,97875.31
2023-04-06T15:22:01.120Z,97879.56
2023-04-06T15:24:31.389Z,97875.03
2023-04-06T15:27:04.215Z,97870.13
2023-04-06T15:29:34.711Z,97870.94
2023-04-06T15:32:05.086Z,97873.59
2023-04-06T15:34:35.442Z,97879.94
2023-04-06T15:37:06.061Z,97885.16
2023-04-06T15:39:37.938Z,97882.34
2023-04-06T15:42:11.044Z,97884.44
2023-04-06T15:44:41.212Z,97882.25
2023-04-06T15:47:11.381Z,97884.84
2023-04-06T15:49:41.500Z,97881.56
2023-04-06T15:52:11.683Z,97887.56
2023-04-06T15:54:41.827Z,97885.09
2023-04-06T15:57:15.025Z,97886.03
2023-04-06T15:59:45.285Z,97889.03
2023-04-06T16:02:16.248Z,97886.22
2023-04-06T16:04:46.644Z,97895.75
2023-04-06T16:07:16.889Z,97898.69
2023-04-06T16:09:47.288Z,97892.19
2023-04-06T16:12:20.524Z,97891.25
2023-04-06T16:14:50.945Z,97902.31
2023-04-06T16:17:21.766Z,97891.28
2023-04-06T16:19:52.687Z,97897.59
2023-04-06T16:22:23.156Z,97905.34
2023-04-06T16:24:53.260Z,97907.41
2023-04-06T16:27:26.136Z,97904.50
2023-04-06T16:29:56.365Z,97904.34
2023-04-06T16:32:26.588Z,97903.28
2023-04-06T16:34:56.790Z,97911.13
2023-04-06T16:37:26.896Z,97910.81
2023-04-06T16:39:57.395Z,97909.13
2023-04-06T16:42:30.151Z,97911.44
2023-04-06T16:45:00.567Z,97910.47
2023-04-06T16:47:30.778Z,97906.75
2023-04-06T16:50:05.476Z,97911.00
2023-04-06T16:52:37.418Z,97912.03
2023-04-06T16:55:08.700Z,97909.41
2023-04-06T16:57:42.878Z,97907.97
2023-04-06T17:00:14.715Z,97913.59
2023-04-06T17:02:44.919Z,97913.44
2023-04-06T17:05:15.329Z,97911.50
2023-04-06T17:07:45.451Z,97912.75
2023-04-06T17:10:16.988Z,97915.94
2023-04-06T17:12:52.310Z,97919.84
2023-04-06T17:15:24.752Z,97921.00
2023-04-06T17:17:55.134Z,97921.06
2023-04-06T17:20:25.318Z,97919.16
2023-04-06T17:22:55.601Z,97917.47
2023-04-06T17:25:25.754Z,97915.13
2023-04-06T17:27:58.481Z,97918.56
2023-04-06T17:30:28.815Z,97915.09
2023-04-06T17:32:59.017Z,97908.81
2023-04-06T17:35:29.647Z,97923.00
2023-04-06T17:37:59.827Z,97915.50
2023-04-06T17:40:29.967Z,97927.88
2023-04-06T17:43:02.704Z,97926.53
2023-04-06T17:45:32.872Z,97928.69
2023-04-06T17:48:03.006Z,97930.69
2023-04-06T17:50:33.293Z,97936.50
2023-04-06T17:53:03.505Z,97942.28
2023-04-06T17:55:33.669Z,97938.16
2023-04-06T17:58:07.563Z,97946.78
2023-04-06T18:00:37.844Z,97941.53
2023-04-06T18:03:08.191Z,97942.38
2023-04-06T18:05:39.812Z,97942.56
2023-04-06T18:08:09.900Z,97945.66
2023-04-06T18:10:42.250Z,97947.81
2023-04-06T18:13:15.026Z,97956.19
2023-04-06T18:15:45.218Z,97952.72
2023-04-06T18:18:17.049Z,97950.75
2023-04-06T18:20:47.383Z,97960.03
2023-04-06T18:23:17.646Z,97961.44
2023-04-06T18:25:47.834Z,97966.06
2023-04-06T18:28:20.971Z,97968.84
2023-04-06T18:30:51.460Z,97961.94
2023-04-06T18:33:21.691Z,97969.53
2023-04-06T18:35:51.898Z,97968.31
2023-04-06T18:38:22.153Z,97968.78
2023-04-06T18:40:52.354Z,97969.41
2023-04-06T18:43:25.394Z,97966.97
2023-04-06T18:45:55.608Z,97974.66
2023-04-06T18:48:25.748Z,97976.81
2023-04-06T18:50:57.862Z,97969.28
2023-04-06T18:53:28.176Z,97977.75
2023-04-06T18:55:59.517Z,97972.06
2023-04-06T18:58:32.398Z,97983.59
2023-04-06T19:01:02.972Z,97987.56
2023-04-06T19:03:33.393Z,97986.78
2023-04-06T19:06:03.714Z,97987.53
2023-04-06T19:08:33.902Z,97984.00
2023-04-06T19:11:09.527Z,97985.50
2023-04-06T19:13:42.399Z,97985.81
2023-04-06T19:16:12.964Z,97987.38
2023-04-06T19:18:45.777Z,97997.19
2023-04-06T19:21:19.766Z,97985.34
2023-04-06T19:23:51.464Z,97981.97
2023-04-06T19:26:23.051Z,97986.44
2023-04-06T19:28:55.910Z,97990.44
2023-04-06T19:31:27.159Z,97986.41
2023-04-06T19:33:57.512Z,97985.91
2023-04-06T19:36:28.522Z,97989.91
2023-04-06T19:38:58.810Z,97987.13
2023-04-06T19:41:29.492Z,97984.03
2023-04-06T19:44:02.276Z,97984.97
2023-04-06T19:46:32.508Z,97984.97
2023-04-06T19:49:03.479Z,97984.31
2023-04-06T19:51:35.705Z,97983.69
2023-04-06T19:54:07.742Z,97978.50
2023-04-06T19:56:37.995Z,97983.06
2023-04-06T19:59:11.180Z,97981.53
2023-04-06T20:01:41.402Z,97976.13
2023-04-06T20:04:13.291Z,97978.59
2023-04-06T20:06:43.542Z,97983.16
2023-04-06T20:09:15.871Z,97982.84
2023-04-06T20:11:46.216Z,97979.75
2023-04-06T20:14:19.093Z,97983.28
2023-04-06T20:16:49.527Z,97982.53
2023-04-06T20:19:19.649Z,97985.28
2023-04-06T20:21:49.803Z,97977.31
2023-04-06T20:24:20.192Z,97982.22
2023-04-06T20:26:50.939Z,97988.63
2023-04-06T20:29:23.734Z,97987.41
2023-04-06T20:31:53.925Z,97990.31
2023-04-06T20:34:26.370Z,97988.19
2023-04-06T20:36:56.582Z,97987.56
2023-04-06T20:39:27.499Z,97991.81
2023-04-06T20:41:57.659Z,97984.13
2023-04-06T20:44:30.465Z,97976.72
2023-04-06T20:47:00.731Z,97981.63
2023-04-06T20:49:31.183Z,97983.44
2023-04-06T20:52:01.777Z,97973.94
2023-04-06T20:54:32.446Z,97976.38
2023-04-06T20:57:03.114Z,97975.75
2023-04-06T20:59:36.123Z,97979.09
2023-04-06T21:02:06.293Z,97966.38
2023-04-06T21:04:37.344Z,97969.78
2023-04-06T21:07:08.432Z,97965.91
2023-04-06T21:09:38.992Z,97968.84
2023-04-06T21:12:10.258Z,97968.84
2023-04-06T21:14:43.139Z,97960.09
2023-04-06T21:17:13.445Z,97961.00
2023-04-06T21:19:43.585Z,97966.19
2023-04-06T21:22:13.721Z,97967.59
2023-04-06T21:24:44.801Z,97966.06
2023-04-06T21:27:14.907Z,97963.91
2023-04-06T21:29:47.780Z,97965.56
2023-04-06T21:32:18.022Z,97957.72
2023-04-06T21:34:48.982Z,97954.34
2023-04-06T21:37:19.813Z,97959.06
2023-04-06T21:39:50.092Z,97959.22
2023-04-06T21:42:20.254Z,97955.50
2023-04-06T21:44:53.096Z,97953.63
2023-04-06T21:47:23.309Z,97958.19
2023-04-06T21:49:53.432Z,97961.19
2023-04-06T21:52:23.567Z,97952.78
2023-04-06T21:54:53.758Z,97960.16
2023-04-06T21:57:23.980Z,97948.81
2023-04-06T21:59:57.374Z,97953.34
2023-04-06T22:02:29.253Z,97949.06
2023-04-06T22:04:59.561Z,97943.22
2023-04-06T22:07:29.770Z,97951.19
2023-04-06T22:09:59.950Z,97953.03
2023-04-06T22:12:30.033Z,97948.47
2023-04-06T22:15:03.159Z,97938.91
2023-04-06T22:17:33.719Z,97939.31
2023-04-06T22:20:03.954Z,97936.34
2023-04-06T22:22:34.176Z,97938.81
2023-04-06T22:25:04.553Z,97930.97
2023-04-06T22:27:34.748Z,97933.41
2023-04-06T22:30:08.545Z,97937.50
2023-04-06T22:32:38.807Z,97938.38
2023-04-06T22:35:10.395Z,97932.88
2023-04-06T22:37:40.612Z,97943.59
2023-04-06T22:40:11.935Z,97935.31
2023-04-06T22:42:42.230Z,97933.22
2023-04-06T22:45:15.172Z,97938.06
2023-04-06T22:47:45.595Z,97936.88
2023-04-06T22:50:16.203Z,97935.56
2023-04-06T22:52:46.619Z,97931.41
2023-04-06T22:55:16.890Z,97933.97
2023-04-06T22:57:47.009Z,97938.69
2023-04-06T23:00:20.189Z,97933.75
2023-04-06T23:02:50.479Z,97936.50
2023-04-06T23:05:21.510Z,97928.25
2023-04-06T23:07:51.806Z,97928.25
2023-04-06T23:10:22.608Z,97935.59
2023-04-06T23:12:53.007Z,97931.97
2023-04-06T23:15:26.010Z,97928.44
2023-04-06T23:17:56.141Z,97934.41
2023-04-06T23:20:26.576Z,97937.28
2023-04-06T23:22:56.725Z,97937.81
2023-04-06T23:25:27.339Z,97935.31
2023-04-06T23:27:57.497Z,97926.28
2023-04-06T23:30:30.396Z,97919.56
2023-04-06T23:33:01.279Z,97920.44
2023-04-06T23:35:31.460Z,97916.50
2023-04-06T23:38:02.047Z,97922.44
2023-04-06T23:40:32.327Z,97919.28
2023-04-06T23:43:02.420Z,97922.03
2023-04-06T23:45:35.640Z,97919.84
2023-04-06T23:48:05.867Z,97915.97
2023-04-06T23:50:37.724Z,97911.03
2023-04-06T23:53:08.126Z,97914.56
2023-04-06T23:55:38.297Z,97912.38
2023-04-06T23:58:08.467Z,97910.38
